createdAt,value
2022-11-04T00:01:07.005Z,12.20
2022-11-04T00:11:19.652Z,11.20
2022-11-04T00:16:34.337Z,10.40
2022-11-04T00:27:38.488Z,11.60
2022-11-04T00:30:09.993Z,10.80
2022-11-04T01:00:05.190Z,11.10
2022-11-04T01:25:14.361Z,10.80
2022-11-04T01:32:41.779Z,10.90
2022-11-04T01:50:28.867Z,10.30
2022-11-04T01:53:04.498Z,10.60
2022-11-04T01:55:35.532Z,10.30
2022-11-04T01:58:18.127Z,10.30
2022-11-04T02:04:30.979Z,10.50
2022-11-04T02:07:07.478Z,10.20
2022-11-04T02:14:55.256Z,9.80
2022-11-04T02:17:58.062Z,10.30
2022-11-04T02:20:37.553Z,10.20
2022-11-04T02:23:38.442Z,10.60
2022-11-04T02:26:43.645Z,11.00
2022-11-04T02:32:12.282Z,9.90
2022-11-04T02:34:51.808Z,10.40
2022-11-04T02:43:12.553Z,11.40
2022-11-04T02:45:51.322Z,10.00
2022-11-04T02:48:48.010Z,10.50
2022-11-04T02:54:06.437Z,10.40
2022-11-04T02:56:41.025Z,9.90
2022-11-04T02:59:19.395Z,11.20
2022-11-04T03:01:49.735Z,11.00
2022-11-04T03:04:28.271Z,10.90
2022-11-04T03:06:59.230Z,11.00
2022-11-04T03:09:29.778Z,10.30
2022-11-04T03:12:05.981Z,10.60
2022-11-04T03:14:46.860Z,11.00
2022-11-04T03:17:49.466Z,10.40
2022-11-04T03:20:26.142Z,10.30
2022-11-04T03:22:59.908Z,10.30
2022-11-04T03:25:37.935Z,10.30
2022-11-04T03:28:30.670Z,10.40
2022-11-04T03:31:03.196Z,10.30
2022-11-04T03:38:35.092Z,10.20
2022-11-04T03:43:39.135Z,10.40
2022-11-04T03:56:29.396Z,10.00
2022-11-04T04:02:03.115Z,10.40
2022-11-04T04:04:56.744Z,9.30
2022-11-04T04:07:56.512Z,9.80
2022-11-04T04:10:39.197Z,9.80
2022-11-04T04:13:31.809Z,9.60
2022-11-04T04:16:31.224Z,10.80
2022-11-04T04:19:05.031Z,10.90
2022-11-04T04:21:45.016Z,10.30
2022-11-04T04:24:34.578Z,10.30
2022-11-04T04:29:51.392Z,9.60
2022-11-04T04:32:22.805Z,9.80
2022-11-04T04:37:26.993Z,9.20
2022-11-04T04:40:23.678Z,10.40
2022-11-04T04:45:53.946Z,10.30
2022-11-04T04:50:55.625Z,9.80
2022-11-04T05:16:14.018Z,9.40
2022-11-04T05:21:16.269Z,10.10
2022-11-04T05:36:15.730Z,10.10
2022-11-04T05:41:25.628Z,10.00
2022-11-04T05:43:59.541Z,10.50
2022-11-04T05:51:26.906Z,9.10
2022-11-04T06:01:38.086Z,10.40
2022-11-04T06:04:07.073Z,9.70
2022-11-04T06:06:36.737Z,9.30
2022-11-04T06:16:38.301Z,9.60
2022-11-04T06:21:37.025Z,9.30
2022-11-04T06:24:07.465Z,9.40
2022-11-04T06:26:39.631Z,9.20
2022-11-04T06:29:10.659Z,10.50
2022-11-04T06:34:33.199Z,9.60
2022-11-04T06:39:32.744Z,9.90
2022-11-04T06:42:05.979Z,9.50
2022-11-04T06:57:11.633Z,9.30
2022-11-04T07:02:11.370Z,9.70
2022-11-04T07:07:08.920Z,10.40
2022-11-04T07:17:26.120Z,8.90
2022-11-04T07:24:51.066Z,9.40
2022-11-04T07:27:19.896Z,10.70
2022-11-04T07:34:44.281Z,9.60
2022-11-04T07:49:34.913Z,9.70
2022-11-04T07:52:04.875Z,10.20
2022-11-04T07:54:36.626Z,9.40
2022-11-04T07:57:06.185Z,9.20
2022-11-04T07:59:43.887Z,9.80
2022-11-04T08:04:42.246Z,9.20
2022-11-04T08:07:34.739Z,10.10
2022-11-04T08:10:11.598Z,9.50
2022-11-04T08:13:04.506Z,9.60
2022-11-04T08:15:44.497Z,9.70
2022-11-04T08:20:50.857Z,10.80
2022-11-04T08:23:44.431Z,9.70
2022-11-04T08:26:18.855Z,10.40
2022-11-04T08:31:29.255Z,10.40
2022-11-04T08:33:58.216Z,10.30
2022-11-04T08:37:01.825Z,10.20
2022-11-04T08:39:54.898Z,10.10
2022-11-04T08:42:34.657Z,10.40
2022-11-04T08:45:03.571Z,10.60
2022-11-04T08:47:38.558Z,10.50
2022-11-04T08:50:31.628Z,10.40
2022-11-04T08:53:01.773Z,10.50
2022-11-04T08:55:30.210Z,10.30
2022-11-04T08:58:02.450Z,11.00
2022-11-04T09:00:55.795Z,10.60
2022-11-04T09:05:53.506Z,10.60
2022-11-04T09:08:23.085Z,10.90
2022-11-04T09:11:16.554Z,10.60
2022-11-04T09:16:15.949Z,11.10
2022-11-04T09:18:45.496Z,11.40
2022-11-04T09:21:37.941Z,10.70
2022-11-04T09:24:07.492Z,10.60
2022-11-04T09:27:00.786Z,10.50
2022-11-04T09:29:33.537Z,10.90
2022-11-04T09:32:08.529Z,10.60
2022-11-04T09:34:46.260Z,11.00
2022-11-04T09:37:18.958Z,10.50
2022-11-04T09:39:53.721Z,10.90
2022-11-04T09:43:11.108Z,11.30
2022-11-04T09:45:44.347Z,12.20
2022-11-04T09:48:28.773Z,11.10
2022-11-04T09:51:00.284Z,11.20
2022-11-04T09:53:45.810Z,12.00
2022-11-04T09:56:32.851Z,11.40
2022-11-04T09:59:32.395Z,11.90
2022-11-04T10:02:28.637Z,11.30
2022-11-04T10:05:46.605Z,11.10
2022-11-04T10:08:50.170Z,10.90
2022-11-04T10:11:29.346Z,11.60
2022-11-04T10:14:54.512Z,11.70
2022-11-04T10:18:00.650Z,12.20
2022-11-04T10:21:09.430Z,12.00
2022-11-04T10:24:15.035Z,11.70
2022-11-04T10:27:12.346Z,12.00
2022-11-04T10:30:01.511Z,12.50
2022-11-04T10:33:25.036Z,13.10
2022-11-04T10:36:01.790Z,12.40
2022-11-04T10:38:47.707Z,12.40
2022-11-04T10:41:34.286Z,12.30
2022-11-04T10:44:08.158Z,15.00
2022-11-04T10:47:04.896Z,12.10
2022-11-04T10:53:19.112Z,13.40
2022-11-04T10:55:54.618Z,12.20
2022-11-04T10:58:28.359Z,14.10
2022-11-04T11:00:57.779Z,12.90
2022-11-04T11:03:35.387Z,12.40
2022-11-04T11:06:33.525Z,13.70
2022-11-04T11:09:19.001Z,14.10
2022-11-04T11:12:44.076Z,14.40
2022-11-04T11:15:27.286Z,14.40
2022-11-04T11:18:55.410Z,14.30
2022-11-04T11:23:54.487Z,14.90
2022-11-04T11:26:32.139Z,16.30
2022-11-04T11:29:11.550Z,16.10
2022-11-04T11:31:43.965Z,17.30
2022-11-04T11:34:47.013Z,17.80
2022-11-04T11:37:24.762Z,17.00
2022-11-04T11:44:51.312Z,16.00
2022-11-04T11:47:28.226Z,15.70
2022-11-04T11:50:18.741Z,16.00
2022-11-04T11:52:50.881Z,15.90
2022-11-04T11:55:50.054Z,16.20
2022-11-04T12:01:46.981Z,17.60
2022-11-04T12:10:58.508Z,19.30
2022-11-04T12:13:54.376Z,19.20
2022-11-04T12:16:39.979Z,20.20
2022-11-04T12:19:29.449Z,20.40
2022-11-04T12:22:18.122Z,21.10
2022-11-04T12:25:43.214Z,20.70
2022-11-04T12:28:38.348Z,20.90
2022-11-04T12:31:53.346Z,20.00
2022-11-04T12:35:10.056Z,19.70
2022-11-04T12:40:22.460Z,18.00
2022-11-04T12:43:17.808Z,18.60
2022-11-04T12:46:35.916Z,18.30
2022-11-04T12:49:46.517Z,16.90
2022-11-04T12:52:29.103Z,16.60
2022-11-04T12:58:16.733Z,15.60
2022-11-04T13:00:51.612Z,15.90
2022-11-04T13:03:41.686Z,15.20
2022-11-04T13:06:46.421Z,14.70
2022-11-04T13:09:36.346Z,14.80
2022-11-04T13:12:14.217Z,15.80
2022-11-04T13:15:04.565Z,14.40
2022-11-04T13:17:40.155Z,14.20
2022-11-04T13:20:40.118Z,15.00
2022-11-04T13:23:16.624Z,15.40
2022-11-04T13:25:48.091Z,15.70
2022-11-04T13:28:20.266Z,16.40
2022-11-04T13:30:59.759Z,15.90
2022-11-04T13:33:38.136Z,15.80
2022-11-04T13:36:50.465Z,16.50
2022-11-04T13:39:29.430Z,17.40
2022-11-04T13:42:13.503Z,18.40
2022-11-04T13:44:50.321Z,18.40
2022-11-04T13:47:25.704Z,19.70
2022-11-04T13:49:56.787Z,20.40
2022-11-04T13:52:53.773Z,19.30
2022-11-04T13:55:21.526Z,19.00
2022-11-04T13:57:52.939Z,17.10
2022-11-04T14:00:27.015Z,16.70
2022-11-04T14:02:57.977Z,16.10
2022-11-04T14:05:34.855Z,15.60
2022-11-04T14:10:42.668Z,14.50
2022-11-04T14:13:29.620Z,14.70
2022-11-04T14:16:06.912Z,14.20
2022-11-04T14:18:42.557Z,14.50
2022-11-04T14:21:19.698Z,14.20
2022-11-04T14:23:54.378Z,14.70
2022-11-04T14:26:27.981Z,14.10
2022-11-04T14:29:09.970Z,14.10
2022-11-04T14:31:50.957Z,13.10
2022-11-04T14:34:37.658Z,14.10
2022-11-04T14:37:29.023Z,13.70
2022-11-04T14:40:00.188Z,13.90
2022-11-04T14:42:58.214Z,13.70
2022-11-04T14:45:39.631Z,13.20
2022-11-04T14:48:20.790Z,14.00
2022-11-04T14:50:52.734Z,15.70
2022-11-04T14:53:34.269Z,13.40
2022-11-04T14:56:23.524Z,14.10
2022-11-04T14:59:06.288Z,12.30
2022-11-04T15:02:33.800Z,11.60
2022-11-04T15:05:02.666Z,12.10
2022-11-04T15:07:41.026Z,12.50
2022-11-04T15:10:27.687Z,12.40
2022-11-04T15:13:02.473Z,12.50
2022-11-04T15:15:41.689Z,12.10
2022-11-04T15:18:25.537Z,11.10
2022-11-04T15:21:04.007Z,12.30
2022-11-04T15:23:37.195Z,12.40
2022-11-04T15:26:37.690Z,11.00
2022-11-04T15:29:16.261Z,11.60
2022-11-04T15:32:05.645Z,11.90
2022-11-04T15:34:36.113Z,12.10
2022-11-04T15:37:06.273Z,11.30
2022-11-04T15:39:47.598Z,12.00
2022-11-04T15:42:40.482Z,11.00
2022-11-04T15:45:49.399Z,11.00
2022-11-04T15:51:21.671Z,12.20
2022-11-04T15:53:55.994Z,10.50
2022-11-04T15:56:30.217Z,12.10
2022-11-04T15:58:59.646Z,12.00
2022-11-04T16:07:10.907Z,11.70
2022-11-04T16:12:34.823Z,10.70
2022-11-04T16:17:33.785Z,10.60
2022-11-04T16:20:08.807Z,11.10
2022-11-04T16:25:56.721Z,10.40
2022-11-04T16:31:33.115Z,10.40
2022-11-04T16:34:03.929Z,10.00
2022-11-04T16:36:35.616Z,10.50
2022-11-04T16:39:15.929Z,10.50
2022-11-04T16:41:47.772Z,10.40
2022-11-04T16:44:26.170Z,10.50
2022-11-04T16:46:57.088Z,10.40
2022-11-04T16:49:25.955Z,10.20
2022-11-04T16:51:57.110Z,9.40
2022-11-04T16:54:50.415Z,10.70
2022-11-04T17:00:00.609Z,10.00
2022-11-04T17:02:31.317Z,9.50
2022-11-04T17:07:55.523Z,9.70
2022-11-04T17:10:28.714Z,9.20
2022-11-04T17:31:02.453Z,9.20
2022-11-04T17:46:37.811Z,8.80
2022-11-04T17:54:38.791Z,9.20
2022-11-04T18:00:05.523Z,8.90
2022-11-04T18:20:15.808Z,10.20
2022-11-04T18:22:44.542Z,9.40
2022-11-04T18:25:13.011Z,9.20
2022-11-04T18:36:05.823Z,9.40
2022-11-04T18:46:07.333Z,9.60
2022-11-04T18:51:13.072Z,9.20
2022-11-04T18:56:22.065Z,9.30
2022-11-04T19:01:33.106Z,9.10
2022-11-04T19:06:36.375Z,9.20
2022-11-04T19:09:32.507Z,9.10
2022-11-04T19:19:41.149Z,9.90
2022-11-04T19:47:11.872Z,8.80
2022-11-04T20:27:28.943Z,8.10
2022-11-04T20:29:56.507Z,9.00
2022-11-04T20:32:37.251Z,8.10
2022-11-04T21:17:05.307Z,7.40
2022-11-04T21:39:27.589Z,7.80
2022-11-04T21:56:46.798Z,6.50
2022-11-04T22:16:39.800Z,6.10
2022-11-04T22:19:10.886Z,6.00
2022-11-04T22:21:40.636Z,6.50
2022-11-04T22:24:16.596Z,5.50
2022-11-04T22:31:42.682Z,5.70
2022-11-04T22:44:11.892Z,5.40
2022-11-04T22:46:42.799Z,5.40
2022-11-04T22:49:10.364Z,5.00
2022-11-04T23:11:49.510Z,6.40
2022-11-04T23:14:40.117Z,5.50
2022-11-04T23:17:40.950Z,3.90
2022-11-04T23:20:12.774Z,5.10
2022-11-04T23:25:52.176Z,4.90
2022-11-04T23:53:38.228Z,4.60
